Terminal Aerodrome Forecast
Issued by NWS

Home | Current Version | Previous Version | Text Only | Print | Product List | Glossary On
Versions: 1 2 3 4 5 6 7 8 9 10 11 12 13 14 15 16 17 18 19 20 21 22 23 24
000
FTUS43 KGRB 192208 AAA
TAFATW
TAF AMD
KATW 192208Z 1922/2018 21004KT 3/4SM BR BKN002
     FM192300 18002KT 1/2SM FG BKN003
     FM200200 VRB03KT 1/4SM -FZRA FZFG OVC003
     FM201000 06003KT 3/4SM -RA BR OVC003
     FM201700 07004KT 2SM -RA BR OVC003=

USA.gov is the U.S. government's official web portal to all federal, state and local government web resources and services.